createdAt,value
2019-01-03T00:00:50.307Z,4.74
2019-01-03T00:03:37.084Z,4.70
2019-01-03T00:06:24.259Z,4.72
2019-01-03T00:09:10.605Z,4.76
2019-01-03T00:12:05.113Z,4.76
2019-01-03T00:15:02.116Z,4.74
2019-01-03T00:17:49.280Z,4.74
2019-01-03T00:20:36.238Z,4.72
2019-01-03T00:23:27.572Z,4.70
2019-01-03T00:26:31.326Z,4.67
2019-01-03T00:29:18.556Z,4.68
2019-01-03T00:32:15.974Z,4.67
2019-01-03T00:35:03.075Z,4.68
2019-01-03T00:37:51.470Z,4.65
2019-01-03T00:40:38.459Z,4.64
2019-01-03T00:43:29.514Z,4.63
2019-01-03T00:46:17.097Z,4.59
2019-01-03T00:49:05.575Z,4.61
2019-01-03T00:51:56.487Z,4.59
2019-01-03T00:54:44.841Z,4.53
2019-01-03T00:57:31.029Z,4.50
2019-01-03T01:00:25.254Z,4.51
2019-01-03T01:03:12.578Z,4.50
2019-01-03T01:06:19.138Z,4.49
2019-01-03T01:09:16.607Z,4.44
2019-01-03T01:12:03.307Z,4.44
2019-01-03T01:15:10.373Z,4.44
2019-01-03T01:18:13.812Z,4.48
2019-01-03T01:21:03.446Z,4.47
2019-01-03T01:23:50.155Z,4.49
2019-01-03T01:26:38.906Z,4.48
2019-01-03T01:29:27.315Z,4.47
2019-01-03T01:32:30.910Z,4.49
2019-01-03T01:35:26.947Z,4.51
2019-01-03T01:38:07.465Z,4.46
2019-01-03T01:40:54.472Z,4.42
2019-01-03T01:43:49.347Z,4.48
2019-01-03T01:46:40.407Z,4.46
2019-01-03T01:49:28.225Z,4.42
2019-01-03T01:52:15.298Z,4.42
2019-01-03T01:55:03.998Z,4.39
2019-01-03T01:57:57.850Z,4.41
2019-01-03T02:00:44.923Z,4.42
2019-01-03T02:03:31.888Z,4.41
2019-01-03T02:06:19.141Z,4.35
2019-01-03T02:09:05.875Z,4.35
2019-01-03T02:11:57.320Z,4.37
2019-01-03T02:14:45.722Z,4.32
2019-01-03T02:17:33.011Z,4.34
2019-01-03T02:20:19.970Z,4.34
2019-01-03T02:23:07.479Z,4.34
2019-01-03T02:25:54.252Z,4.30
2019-01-03T02:28:54.627Z,4.29
2019-01-03T02:31:41.458Z,4.28
2019-01-03T02:34:39.225Z,4.26
2019-01-03T02:37:26.040Z,4.26
2019-01-03T02:40:26.934Z,4.27
2019-01-03T02:43:17.794Z,4.27
2019-01-03T02:46:05.884Z,4.22
2019-01-03T02:49:12.222Z,4.23
2019-01-03T02:52:10.638Z,4.24
2019-01-03T02:55:02.688Z,4.26
2019-01-03T02:58:09.009Z,4.30
2019-01-03T03:00:55.950Z,4.26
2019-01-03T03:03:40.190Z,4.24
2019-01-03T03:06:42.074Z,4.23
2019-01-03T03:09:33.231Z,4.24
2019-01-03T03:12:21.836Z,4.23
2019-01-03T03:15:19.372Z,4.19
2019-01-03T03:18:08.885Z,4.22
2019-01-03T03:21:03.333Z,4.23
2019-01-03T03:24:00.839Z,4.27
2019-01-03T03:26:39.545Z,4.27
2019-01-03T03:29:27.079Z,4.25
2019-01-03T03:32:13.887Z,4.23
2019-01-03T03:35:04.438Z,4.26
2019-01-03T03:38:01.591Z,4.26
2019-01-03T03:41:03.190Z,4.25
2019-01-03T03:43:57.510Z,4.25
2019-01-03T03:46:42.342Z,4.29
2019-01-03T03:49:29.767Z,4.32
2019-01-03T03:52:27.549Z,4.28
2019-01-03T03:55:14.457Z,4.30
2019-01-03T03:58:05.910Z,4.31
2019-01-03T04:01:03.073Z,4.29
2019-01-03T04:03:50.092Z,4.30
2019-01-03T04:06:38.512Z,4.32
2019-01-03T04:09:29.922Z,4.32
2019-01-03T04:12:24.311Z,4.33
2019-01-03T04:15:18.804Z,4.34
2019-01-03T04:18:25.338Z,4.33
2019-01-03T04:21:15.384Z,4.33
2019-01-03T04:24:02.468Z,4.32
2019-01-03T04:26:56.967Z,4.37
2019-01-03T04:29:45.293Z,4.34
2019-01-03T04:32:32.235Z,4.37
2019-01-03T04:35:20.640Z,4.37
2019-01-03T04:38:04.051Z,4.34
2019-01-03T04:40:56.461Z,4.37
2019-01-03T04:43:53.815Z,4.35
2019-01-03T04:46:51.520Z,4.37
2019-01-03T04:49:47.420Z,4.37
2019-01-03T04:52:44.504Z,4.42
2019-01-03T04:55:39.054Z,4.42
2019-01-03T04:58:25.800Z,4.40
2019-01-03T05:01:57.419Z,4.31
2019-01-03T05:04:44.641Z,4.39
2019-01-03T05:07:33.068Z,4.38
2019-01-03T05:10:20.296Z,4.35
2019-01-03T05:13:07.764Z,4.41
2019-01-03T05:15:56.179Z,4.41
2019-01-03T05:18:50.693Z,4.34
2019-01-03T05:21:41.844Z,4.39
2019-01-03T05:24:36.165Z,4.42
2019-01-03T05:27:36.699Z,4.37
2019-01-03T05:30:44.629Z,4.37
2019-01-03T05:33:31.334Z,4.35
2019-01-03T05:36:28.516Z,4.36
2019-01-03T05:39:34.977Z,4.27
2019-01-03T05:42:23.631Z,4.36
2019-01-03T05:45:11.981Z,4.35
2019-01-03T05:48:00.720Z,4.38
2019-01-03T05:50:47.459Z,4.35
2019-01-03T05:53:40.785Z,4.35
2019-01-03T05:56:37.982Z,4.37
2019-01-03T05:59:25.491Z,4.35
2019-01-03T06:02:12.358Z,4.37
2019-01-03T06:05:00.236Z,4.37
2019-01-03T06:07:54.630Z,4.38
2019-01-03T06:10:42.191Z,4.41
2019-01-03T06:13:33.750Z,4.37
2019-01-03T06:16:21.271Z,4.38
2019-01-03T06:19:09.397Z,4.34
2019-01-03T06:21:58.189Z,4.36
2019-01-03T06:25:00.955Z,4.45
2019-01-03T06:27:48.195Z,4.47
2019-01-03T06:30:36.608Z,4.46
2019-01-03T06:33:39.087Z,4.44
2019-01-03T06:36:39.771Z,4.54
2019-01-03T06:39:43.060Z,4.53
2019-01-03T06:42:46.562Z,4.50
2019-01-03T06:45:35.141Z,4.47
2019-01-03T06:48:38.677Z,4.57
2019-01-03T06:51:33.326Z,4.63
2019-01-03T06:54:20.712Z,4.65
2019-01-03T06:57:15.105Z,4.69
2019-01-03T07:00:12.299Z,4.74
2019-01-03T07:03:02.460Z,4.80
2019-01-03T07:05:49.532Z,4.74
2019-01-03T07:08:36.558Z,4.73
2019-01-03T07:11:23.668Z,4.64
2019-01-03T07:14:12.340Z,4.70
2019-01-03T07:16:59.437Z,4.76
2019-01-03T07:19:48.808Z,4.78
2019-01-03T07:22:46.078Z,4.79
2019-01-03T07:25:33.755Z,4.81
2019-01-03T07:28:20.670Z,4.80
2019-01-03T07:31:15.577Z,4.70
2019-01-03T07:34:02.768Z,4.68
2019-01-03T07:36:50.318Z,4.71
2019-01-03T07:39:50.644Z,4.64
2019-01-03T07:42:51.574Z,4.54
2019-01-03T07:45:40.207Z,4.43
2019-01-03T07:48:34.634Z,4.33
2019-01-03T07:51:31.758Z,4.23
2019-01-03T07:54:26.191Z,4.15
2019-01-03T07:57:26.570Z,3.92
2019-01-03T08:00:15.261Z,3.82
2019-01-03T08:03:02.110Z,3.67
2019-01-03T08:05:50.120Z,3.74
2019-01-03T08:08:37.156Z,3.74
2019-01-03T08:11:24.150Z,3.74
2019-01-03T08:14:13.194Z,3.53
2019-01-03T08:17:11.273Z,3.41
2019-01-03T08:19:59.633Z,3.52
2019-01-03T08:22:46.948Z,3.56
2019-01-03T08:25:47.417Z,3.57
2019-01-03T08:28:36.133Z,3.55
2019-01-03T08:31:22.891Z,3.63
2019-01-03T08:34:09.870Z,3.65
2019-01-03T08:37:10.375Z,3.85
2019-01-03T08:39:58.195Z,3.95
2019-01-03T08:42:49.772Z,3.78
2019-01-03T08:45:41.474Z,3.90
2019-01-03T08:48:48.076Z,3.74
2019-01-03T08:51:36.805Z,3.76
2019-01-03T08:54:27.843Z,3.91
2019-01-03T08:57:24.076Z,3.96
2019-01-03T09:00:27.275Z,3.94
2019-01-03T09:03:14.669Z,3.97
2019-01-03T09:06:05.747Z,4.08
2019-01-03T09:08:52.595Z,4.02
2019-01-03T09:11:52.586Z,4.16
2019-01-03T09:14:43.890Z,4.26
2019-01-03T09:17:34.966Z,4.28
2019-01-03T09:20:22.791Z,4.37
2019-01-03T09:23:20.180Z,4.22
2019-01-03T09:26:07.772Z,4.23
2019-01-03T09:28:58.982Z,4.44
2019-01-03T09:31:47.648Z,4.44
2019-01-03T09:34:44.837Z,4.39
2019-01-03T09:37:28.328Z,4.30
2019-01-03T09:40:19.626Z,4.25
2019-01-03T09:43:07.001Z,4.31
2019-01-03T09:45:43.976Z,4.26
2019-01-03T09:48:07.807Z,4.22
2019-01-03T09:50:37.427Z,4.25
2019-01-03T09:53:06.829Z,4.32
2019-01-03T09:55:36.313Z,4.27
2019-01-03T09:58:06.148Z,4.21
2019-01-03T10:00:35.580Z,4.18
2019-01-03T10:03:04.982Z,4.25
2019-01-03T10:05:34.874Z,4.24
2019-01-03T10:08:04.355Z,4.25
2019-01-03T10:10:33.752Z,4.22
2019-01-03T10:13:03.391Z,4.33
2019-01-03T10:15:33.015Z,4.41
2019-01-03T10:18:02.516Z,4.40
2019-01-03T10:20:32.197Z,4.44
2019-01-03T10:23:01.706Z,4.50
2019-01-03T10:25:31.171Z,4.62
2019-01-03T10:28:00.874Z,4.69
2019-01-03T10:30:30.374Z,4.79
2019-01-03T10:32:59.842Z,4.56
2019-01-03T10:35:29.569Z,4.60
2019-01-03T10:37:58.952Z,4.72
2019-01-03T10:40:28.431Z,4.69
2019-01-03T10:42:58.272Z,4.63
2019-01-03T10:45:27.695Z,4.65
2019-01-03T10:47:57.086Z,4.72
2019-01-03T10:50:27.402Z,4.59
2019-01-03T10:52:56.900Z,4.70
2019-01-03T10:55:26.457Z,4.73
2019-01-03T10:57:56.342Z,4.80
2019-01-03T11:00:25.760Z,4.70
2019-01-03T11:02:55.164Z,4.72
2019-01-03T11:05:24.942Z,4.69
2019-01-03T11:07:54.434Z,4.71
2019-01-03T11:10:23.861Z,4.85
2019-01-03T11:12:53.292Z,4.82
2019-01-03T11:15:22.793Z,4.92
2019-01-03T11:17:52.259Z,4.80
2019-01-03T11:20:22.077Z,4.84
2019-01-03T11:22:51.457Z,4.82
2019-01-03T11:25:20.986Z,4.77
2019-01-03T11:27:50.716Z,4.85
2019-01-03T11:30:20.108Z,4.99
2019-01-03T11:32:49.492Z,4.86
2019-01-03T11:35:19.164Z,5.04
2019-01-03T11:37:48.562Z,4.96
2019-01-03T11:40:18.083Z,4.96
2019-01-03T11:42:47.890Z,4.88
2019-01-03T11:45:17.270Z,4.85
2019-01-03T11:47:46.773Z,4.84
2019-01-03T11:50:16.599Z,4.82
2019-01-03T11:52:46.134Z,4.80
2019-01-03T11:55:15.552Z,4.79
2019-01-03T11:57:45.282Z,4.91
2019-01-03T12:00:14.870Z,4.84
2019-01-03T12:02:44.367Z,4.75
2019-01-03T12:05:14.091Z,4.76
2019-01-03T12:07:43.494Z,4.86
2019-01-03T12:10:13.301Z,4.92
2019-01-03T12:12:42.923Z,4.86
2019-01-03T12:15:12.380Z,4.78
2019-01-03T12:17:41.867Z,4.83
2019-01-03T12:20:11.537Z,4.90
2019-01-03T12:22:40.964Z,4.89
2019-01-03T12:25:10.445Z,4.92
2019-01-03T12:27:40.596Z,4.92
2019-01-03T12:30:11.384Z,4.79
2019-01-03T12:32:40.802Z,4.84
2019-01-03T12:35:10.628Z,4.84
2019-01-03T12:37:40.145Z,4.69
2019-01-03T12:40:09.701Z,4.72
2019-01-03T12:42:39.240Z,4.65
2019-01-03T12:45:09.148Z,4.57
2019-01-03T12:47:38.634Z,4.57
2019-01-03T12:50:10.604Z,4.68
2019-01-03T12:52:40.040Z,4.67
2019-01-03T12:55:09.645Z,4.69
2019-01-03T12:57:39.357Z,4.60
2019-01-03T13:00:12.785Z,4.54
2019-01-03T13:02:42.665Z,4.55
2019-01-03T13:05:12.352Z,4.49
2019-01-03T13:07:42.148Z,4.55
2019-01-03T13:10:13.774Z,4.48
2019-01-03T13:12:43.288Z,4.42
2019-01-03T13:15:12.678Z,4.48
2019-01-03T13:17:42.259Z,4.55
2019-01-03T13:20:11.746Z,4.61
2019-01-03T13:22:41.222Z,4.56
2019-01-03T13:25:10.983Z,4.65
2019-01-03T13:27:40.406Z,4.59
2019-01-03T13:30:11.447Z,4.57
2019-01-03T13:32:41.643Z,4.52
2019-01-03T13:35:11.386Z,4.58
2019-01-03T13:37:41.035Z,4.55
2019-01-03T13:40:10.910Z,4.53
2019-01-03T13:42:40.465Z,4.50
2019-01-03T13:45:10.092Z,4.46
2019-01-03T13:47:39.850Z,4.42
2019-01-03T13:50:09.548Z,4.48
2019-01-03T13:52:39.364Z,4.45
2019-01-03T13:55:09.218Z,4.50
2019-01-03T13:57:38.769Z,4.44
2019-01-03T14:00:10.499Z,4.48
2019-01-03T14:02:40.171Z,4.42
2019-01-03T14:05:09.903Z,4.39
2019-01-03T14:07:39.833Z,4.42
2019-01-03T14:10:09.554Z,4.41
2019-01-03T14:12:39.034Z,4.46
2019-01-03T14:15:08.731Z,4.43
2019-01-03T14:17:38.843Z,4.40
2019-01-03T14:20:11.197Z,4.34
2019-01-03T14:22:40.797Z,4.22
2019-01-03T14:25:10.559Z,4.21
2019-01-03T14:27:40.206Z,4.16
2019-01-03T14:30:11.094Z,4.21
2019-01-03T14:32:40.533Z,4.12
2019-01-03T14:35:11.449Z,4.11
2019-01-03T14:37:42.454Z,4.10
2019-01-03T14:40:11.902Z,4.09
2019-01-03T14:42:41.710Z,4.00
2019-01-03T14:45:11.616Z,3.97
2019-01-03T14:47:41.315Z,3.98
2019-01-03T14:50:11.337Z,3.86
2019-01-03T14:52:40.779Z,3.72
2019-01-03T14:55:11.201Z,3.58
2019-01-03T14:57:40.982Z,3.67
2019-01-03T15:00:14.204Z,3.61
2019-01-03T15:02:43.864Z,3.60
2019-01-03T15:05:15.947Z,3.56
2019-01-03T15:07:45.710Z,3.56
2019-01-03T15:10:15.278Z,3.40
2019-01-03T15:12:44.827Z,3.39
2019-01-03T15:15:14.409Z,3.29
2019-01-03T15:17:43.817Z,3.30
2019-01-03T15:20:13.924Z,3.32
2019-01-03T15:22:43.854Z,3.14
2019-01-03T15:25:13.255Z,3.17
2019-01-03T15:27:42.837Z,3.14
2019-01-03T15:30:13.194Z,3.08
2019-01-03T15:32:42.730Z,3.11
2019-01-03T15:35:12.144Z,3.17
2019-01-03T15:37:41.671Z,3.10
2019-01-03T15:40:11.075Z,3.11
2019-01-03T15:42:40.510Z,3.06
2019-01-03T15:45:10.408Z,3.07
2019-01-03T15:47:39.912Z,3.04
2019-01-03T15:50:09.765Z,2.96
2019-01-03T15:52:39.458Z,2.96
2019-01-03T15:55:08.978Z,2.92
2019-01-03T15:57:39.450Z,2.81
2019-01-03T16:00:10.896Z,2.81
2019-01-03T16:02:40.350Z,2.81
2019-01-03T16:05:09.869Z,2.75
2019-01-03T16:07:39.804Z,2.79
2019-01-03T16:10:09.988Z,2.83
2019-01-03T16:12:39.400Z,2.77
2019-01-03T16:15:09.371Z,2.75
2019-01-03T16:17:38.772Z,2.78
2019-01-03T16:20:08.885Z,2.71
2019-01-03T16:22:38.800Z,2.74
2019-01-03T16:25:08.197Z,2.77
2019-01-03T16:27:37.761Z,2.64
2019-01-03T16:30:08.986Z,2.79
2019-01-03T16:32:38.488Z,2.75
2019-01-03T16:35:07.887Z,2.80
2019-01-03T16:37:37.649Z,2.82
2019-01-03T16:40:08.518Z,2.84
2019-01-03T16:42:45.400Z,2.83
2019-01-03T16:45:14.973Z,2.85
2019-01-03T16:47:44.501Z,2.82
2019-01-03T16:50:16.543Z,2.80
2019-01-03T16:52:46.047Z,2.77
2019-01-03T16:55:15.623Z,2.73
2019-01-03T16:57:45.436Z,2.73
2019-01-03T17:00:16.035Z,2.79
2019-01-03T17:02:45.451Z,2.80
2019-01-03T17:05:14.995Z,2.72
2019-01-03T17:07:44.493Z,2.75
2019-01-03T17:10:16.382Z,2.75
2019-01-03T17:12:46.029Z,2.84
2019-01-03T17:15:15.673Z,2.85
2019-01-03T17:17:45.196Z,2.84
2019-01-03T17:20:14.991Z,2.83
2019-01-03T17:22:44.428Z,2.80
2019-01-03T17:25:14.920Z,2.82
2019-01-03T17:27:44.723Z,2.79
2019-01-03T17:30:14.390Z,2.75
2019-01-03T17:32:43.980Z,2.82
2019-01-03T17:35:13.929Z,2.95
2019-01-03T17:37:43.322Z,2.81
2019-01-03T17:40:14.384Z,2.77
2019-01-03T17:42:46.083Z,2.82
2019-01-03T17:45:15.760Z,2.82
2019-01-03T17:47:45.228Z,2.81
2019-01-03T17:50:15.112Z,2.79
2019-01-03T17:52:44.668Z,2.71
2019-01-03T17:55:14.162Z,2.67
2019-01-03T17:57:43.810Z,2.67
2019-01-03T18:00:16.391Z,2.68
2019-01-03T18:02:45.942Z,2.59
2019-01-03T18:05:15.499Z,2.74
2019-01-03T18:07:44.945Z,2.60
2019-01-03T18:10:15.082Z,2.77
2019-01-03T18:12:44.635Z,2.79
2019-01-03T18:15:14.169Z,2.68
2019-01-03T18:17:43.690Z,2.59
2019-01-03T18:20:15.980Z,2.58
2019-01-03T18:22:45.409Z,2.54
2019-01-03T18:25:14.987Z,2.46
2019-01-03T18:27:44.949Z,2.36
2019-01-03T18:30:14.663Z,2.31
2019-01-03T18:32:44.268Z,2.30
2019-01-03T18:35:14.194Z,2.30
2019-01-03T18:37:43.737Z,2.16
2019-01-03T18:40:15.241Z,2.08
2019-01-03T18:42:45.054Z,2.09
2019-01-03T18:45:17.893Z,2.03
2019-01-03T18:47:47.730Z,2.04
2019-01-03T18:50:19.057Z,1.98
2019-01-03T18:52:48.669Z,2.02
2019-01-03T18:55:18.187Z,1.94
2019-01-03T18:57:48.114Z,1.94
2019-01-03T19:00:17.534Z,1.92
2019-01-03T19:02:46.968Z,1.88
2019-01-03T19:05:16.528Z,1.80
2019-01-03T19:07:46.057Z,1.81
2019-01-03T19:10:15.520Z,1.81
2019-01-03T19:12:45.325Z,1.70
2019-01-03T19:15:14.835Z,1.77
2019-01-03T19:17:44.373Z,1.73
2019-01-03T19:20:13.986Z,1.74
2019-01-03T19:22:43.578Z,1.77
2019-01-03T19:25:15.873Z,1.82
2019-01-03T19:27:45.452Z,1.78
2019-01-03T19:30:15.301Z,1.73
2019-01-03T19:32:44.760Z,1.69
2019-01-03T19:35:14.601Z,1.69
2019-01-03T19:37:44.072Z,1.74
2019-01-03T19:40:15.126Z,1.79
2019-01-03T19:42:46.377Z,1.81
2019-01-03T19:45:15.852Z,1.80
2019-01-03T19:47:45.417Z,1.86
2019-01-03T19:50:20.199Z,1.86
2019-01-03T19:52:49.765Z,1.88
2019-01-03T19:55:19.241Z,1.92
2019-01-03T19:57:49.056Z,1.94
2019-01-03T20:00:18.554Z,1.96
2019-01-03T20:02:48.094Z,1.98
2019-01-03T20:05:17.584Z,1.92
2019-01-03T20:07:47.940Z,1.97
2019-01-03T20:10:17.536Z,1.97
2019-01-03T20:12:47.125Z,1.96
2019-01-03T20:15:16.613Z,1.99
2019-01-03T20:17:46.230Z,2.03
2019-01-03T20:20:15.981Z,2.08
2019-01-03T20:22:45.372Z,2.09
2019-01-03T20:25:14.936Z,2.07
2019-01-03T20:27:44.764Z,2.11
2019-01-03T20:30:14.254Z,2.05
2019-01-03T20:32:43.699Z,2.01
2019-01-03T20:35:13.215Z,2.08
2019-01-03T20:37:42.719Z,2.06
2019-01-03T20:40:12.469Z,2.07
2019-01-03T20:42:42.059Z,2.00
2019-01-03T20:45:12.766Z,2.03
2019-01-03T20:47:42.325Z,2.02
2019-01-03T20:50:12.149Z,2.07
2019-01-03T20:52:42.745Z,2.06
2019-01-03T20:55:12.401Z,2.06
2019-01-03T20:57:41.946Z,2.00
2019-01-03T21:00:14.062Z,2.01
2019-01-03T21:02:43.576Z,2.03
2019-01-03T21:05:13.250Z,2.03
2019-01-03T21:07:42.656Z,2.02
2019-01-03T21:10:13.294Z,1.99
2019-01-03T21:12:43.226Z,1.99
2019-01-03T21:15:15.420Z,1.95
2019-01-03T21:17:44.824Z,1.99
2019-01-03T21:20:15.248Z,1.94
2019-01-03T21:22:44.839Z,1.92
2019-01-03T21:25:14.508Z,1.83
2019-01-03T21:27:44.163Z,1.90
2019-01-03T21:30:16.386Z,1.94
2019-01-03T21:32:45.865Z,1.95
2019-01-03T21:35:15.523Z,1.99
2019-01-03T21:37:45.009Z,1.96
2019-01-03T21:40:14.526Z,1.94
2019-01-03T21:42:44.254Z,1.97
2019-01-03T21:45:13.859Z,1.94
2019-01-03T21:47:43.352Z,1.96
2019-01-03T21:50:13.539Z,1.97
2019-01-03T21:52:42.925Z,2.01
2019-01-03T21:55:12.419Z,2.01
2019-01-03T21:57:42.197Z,1.99
2019-01-03T22:00:13.373Z,1.94
2019-01-03T22:02:42.890Z,1.98
2019-01-03T22:05:12.659Z,2.01
2019-01-03T22:07:42.230Z,1.95
2019-01-03T22:10:12.124Z,1.98
2019-01-03T22:12:41.898Z,1.99
2019-01-03T22:15:11.817Z,1.98
2019-01-03T22:17:41.203Z,1.95
2019-01-03T22:20:11.644Z,1.95
2019-01-03T22:22:41.252Z,1.87
2019-01-03T22:25:10.646Z,1.89
2019-01-03T22:27:40.357Z,1.95
2019-01-03T22:30:11.674Z,1.93
2019-01-03T22:32:41.721Z,1.93
2019-01-03T22:35:11.444Z,1.93
2019-01-03T22:37:40.826Z,1.85
2019-01-03T22:40:10.571Z,1.78
2019-01-03T22:42:40.307Z,1.87
2019-01-03T22:45:11.343Z,1.85
2019-01-03T22:47:40.739Z,1.84
2019-01-03T22:50:11.465Z,1.81
2019-01-03T22:52:41.060Z,1.80
2019-01-03T22:55:10.455Z,1.85
2019-01-03T22:57:40.204Z,1.84
2019-01-03T23:00:30.742Z,1.78
2019-01-03T23:03:00.579Z,1.84
2019-01-03T23:05:30.191Z,1.85
2019-01-03T23:07:59.670Z,1.84
2019-01-03T23:10:29.102Z,1.82
2019-01-03T23:12:58.517Z,1.83
2019-01-03T23:15:28.114Z,1.77
2019-01-03T23:17:57.863Z,1.72
2019-01-03T23:20:27.293Z,1.76
2019-01-03T23:22:56.702Z,1.74
2019-01-03T23:25:26.390Z,1.72
2019-01-03T23:27:55.883Z,1.68
2019-01-03T23:30:25.262Z,1.64
2019-01-03T23:32:54.965Z,1.70
2019-01-03T23:35:24.587Z,1.63
2019-01-03T23:37:54.032Z,1.66
2019-01-03T23:40:23.555Z,1.69
2019-01-03T23:42:53.021Z,1.71
2019-01-03T23:45:24.037Z,1.66
2019-01-03T23:47:58.099Z,1.64
2019-01-03T23:50:32.546Z,1.64
2019-01-03T23:53:02.372Z,1.64
2019-01-03T23:55:35.683Z,1.64
2019-01-03T23:58:05.291Z,1.55
